Meteo Giornale » Osservazioni meteo Sud Africa » Wonderboom-Pretoria
ore: 18:00 - Osservazioni Meteo Wonderboom-Pretoria
Lat. 25° 39' S Lon. 28° 13' E Alt. 1248 metri s.l.m.
23 °C
Sereno
Temp. 24 Ore
10 °C
28 °C
Nord
5.5 Km/h
Dew point 0 °C
Umidità 21 %
Visibilità 12 Km
Il sole sorge alle ore 06:19
Il sole tramonta alle ore 17:55
| Data e Ora | Cielo e Fenomeni | T °C | DP °C | Um. % | Pres. hPa | Vis. km | Vento km/h | |
|---|---|---|---|---|---|---|---|---|
| Oggi h: 18:00 | Sereno | 23 | 0 | 21 | 1025 | 12 | N 5.5 | |
| Oggi h: 17:00 | Sereno | 27 | -3 | 13 | 1024 | 12 | N/NE 9.3 | |
| Oggi h: 16:00 | Sereno | 28 | -3 | 12 | 1024 | 11 | N 13 | |
| Oggi h: 15:00 | Sereno | 28 | -3 | 12 | 1024 | 11 | NE 9.3 | |
| Oggi h: 14:00 | Sereno | 28 | -3 | 12 | 1025 | 11 | NE 13 | |
| Oggi h: 13:00 | Sereno | 28 | -2 | 13 | 1026 | 11 | N/NE 11.1 | |
| Oggi h: 12:00 | Sereno | 27 | 0 | 17 | 1027 | 11 | N 7.4 | |
| Oggi h: 11:00 | Sereno | 24 | 1 | 22 | 1029 | 11 | N/NE 7.4 | |
| Oggi h: 10:00 | Sereno | 23 | 2 | 25 | 1029 | 11 | NE 7.4 | |
| Oggi h: 09:00 | Sereno | 21 | 2 | 28 | 1029 | 11 | E/NE 7.4 | |
| Oggi h: 08:00 | Sereno | 18 | 1 | 31 | 1028 | 11 | N 3.7 | |
| Oggi h: 07:00 | Sereno | 10 | 2 | 57 | 1027 | 11 | N 0 | |
| Oggi h: 06:00 | Sereno | 12 | 1 | 46 | 1026 | 10 | N 0 | |
| Oggi h: 05:00 | Sereno | 13 | 0 | 40 | 1026 | 10 | N 1.8 | |
| Oggi h: 04:00 | Sereno | 12 | 1 | 46 | 1026 | 10 | SE 7.4 | |
| Oggi h: 03:00 | Sereno | 15 | 0 | 35 | 1026 | 10 | SE 9.3 | |
| Oggi h: 02:00 | Sereno | 16 | 0 | 33 | 1026 | 10 | E/SE 11.1 | |
| Oggi h: 01:00 | Sereno | 15 | 0 | 35 | 1027 | 0 | E/NE 13 | |
| Oggi h: 00:00 | Sereno | 19 | 0 | 27 | 1026 | 0 | E/SE 13 | |
| Ieri h: 23:00 | Sereno | 19 | 0 | 27 | 1026 | 0 | S/SE 14.8 | |
| Ieri h: 22:00 | Sereno | 15 | 0 | 35 | 1026 | 0 | N 5.5 | |
| Ieri h: 21:00 | Sereno | 17 | -1 | 29 | 1026 | 0 | E/SE 9.3 | |
| Ieri h: 20:00 | Sereno | 14 | 0 | 38 | 1025 | 0 | N 1.8 | |



